Time;durP1;ratioP1;P1;durP2;ratioP2;P2;SDS_P1;SDS_P2;PMS_P1;PMS_P2;Temp;Humidity;BMP_temperature;BMP_pressure;BME280_temperature;BME280_humidity;BME280_pressure;Samples;Min_cycle;Max_cycle;Signal;HPM_P1;HPM_P2
2021/01/28 00:00:37;;;;;;;0.55;0.40;;;;;;;-1.21;100.00;99079.90;1735619;82;21110;-51
2021/01/28 00:03:05;;;;;;;0.00;0.00;;;;;;;-1.19;100.00;99079.14;1786630;80;21251;-52
2021/01/28 00:05:35;;;;;;;0.10;0.10;;;;;;;-1.18;100.00;99063.37;1786512;80;21425;-50
2021/01/28 00:08:03;;;;;;;0.10;0.10;;;;;;;-1.17;100.00;99074.37;1735545;82;21129;-51
2021/01/28 00:10:30;;;;;;;0.10;0.10;;;;;;;-1.16;100.00;99066.63;1786428;80;21133;-52
2021/01/28 00:12:58;;;;;;;0.35;0.35;;;;;;;-1.16;100.00;99078.70;1786520;80;21497;-51
2021/01/28 00:15:28;;;;;;;0.00;0.00;;;;;;;-1.17;100.00;99077.05;1757251;81;21187;-51
2021/01/28 00:17:56;;;;;;;0.10;0.10;;;;;;;-1.16;100.00;99061.27;1757700;81;21157;-52
2021/01/28 00:20:32;;;;;;;0.10;0.10;;;;;;;-1.17;100.00;99060.97;1757796;81;21171;-51
2021/01/28 00:23:00;;;;;;;0.00;0.00;;;;;;;-1.19;100.00;99062.53;1727854;83;21163;-51
2021/01/28 00:25:27;;;;;;;0.20;0.20;;;;;;;-1.17;100.00;99050.24;1729397;82;21182;-50
2021/01/28 00:27:55;;;;;;;0.00;0.00;;;;;;;-1.19;100.00;99042.95;1759703;81;21139;-50
2021/01/28 00:30:28;;;;;;;0.68;0.42;;;;;;;-1.19;100.00;99029.02;1789037;80;21186;-50
2021/01/28 00:32:56;;;;;;;0.10;0.10;;;;;;;-1.19;100.00;99042.95;1788827;80;21185;-51
2021/01/28 00:35:33;;;;;;;0.20;0.20;;;;;;;-1.21;100.00;99037.02;1789064;80;21119;-51
2021/01/28 00:38:01;;;;;;;0.08;0.08;;;;;;;-1.23;100.00;99049.86;1789039;80;21166;-51
2021/01/28 00:40:29;;;;;;;1.20;0.33;;;;;;;-1.23;100.00;99043.97;1788982;80;21133;-50
2021/01/28 00:42:57;;;;;;;0.10;0.10;;;;;;;-1.23;100.00;99036.46;1788933;80;21134;-51
2021/01/28 00:45:27;;;;;;;0.05;0.05;;;;;;;-1.24;100.00;99033.47;1788937;80;21114;-50
2021/01/28 00:47:55;;;;;;;0.20;0.20;;;;;;;-1.25;100.00;99038.56;1729618;82;21095;-51
2021/01/28 00:50:26;;;;;;;0.10;0.10;;;;;;;-1.24;100.00;99034.81;1789015;80;21154;-51
2021/01/28 00:52:53;;;;;;;0.10;0.10;;;;;;;-1.25;100.00;99049.28;1789214;80;21149;-51
2021/01/28 00:55:21;;;;;;;0.28;0.28;;;;;;;-1.23;100.00;99047.19;1789005;80;21173;-50
2021/01/28 00:57:50;;;;;;;0.53;0.40;;;;;;;-1.23;100.00;99023.06;1757739;81;21118;-50
2021/01/28 01:00:37;;;;;;;0.23;0.23;;;;;;;-1.24;100.00;99010.69;1759787;81;21118;-51
2021/01/28 01:03:06;;;;;;;0.10;0.10;;;;;;;-1.24;100.00;98999.97;1789262;80;21106;-51
2021/01/28 01:05:34;;;;;;;0.00;0.00;;;;;;;-1.24;100.00;99002.65;1789106;80;21114;-52
2021/01/28 01:08:03;;;;;;;0.10;0.10;;;;;;;-1.24;100.00;98999.97;1789238;80;21162;-50
2021/01/28 01:10:45;;;;;;;0.42;0.42;;;;;;;-1.26;100.00;98994.03;1789330;79;21150;-51
2021/01/28 01:13:19;;;;;;;0.10;0.10;;;;;;;-1.25;100.00;98998.35;1789192;80;21141;-51
2021/01/28 01:15:47;;;;;;;0.10;0.10;;;;;;;-1.28;100.00;98998.84;1794751;79;21137;-51
2021/01/28 01:18:17;;;;;;;0.90;0.72;;;;;;;-1.27;100.00;99001.79;1757665;81;21137;-51
2021/01/28 01:20:45;;;;;;;0.25;0.25;;;;;;;-1.28;100.00;98997.50;1740513;82;21446;-51
2021/01/28 01:23:14;;;;;;;0.00;0.00;;;;;;;-1.27;100.00;98998.58;1713508;82;21154;-51
2021/01/28 01:25:49;;;;;;;0.13;0.13;;;;;;;-1.28;100.00;99002.86;1736691;82;21181;-51
2021/01/28 01:28:17;;;;;;;0.23;0.23;;;;;;;-1.28;100.00;99006.88;1740823;82;21149;-50
2021/01/28 01:30:49;;;;;;;;;;;;;;;-1.29;100.00;98989.95;1742834;82;21497;-51
2021/01/28 01:33:17;;;;;;;0.33;0.33;;;;;;;-1.28;100.00;98985.44;1740748;82;20264;-51
2021/01/28 01:35:59;;;;;;;0.10;0.10;;;;;;;-1.30;100.00;98977.09;1740160;82;21552;-50
2021/01/28 01:38:26;;;;;;;0.33;0.10;;;;;;;-1.31;100.00;98987.53;1740827;82;21141;-51
2021/01/28 01:40:57;;;;;;;0.10;0.10;;;;;;;-1.34;100.00;99004.06;1759564;81;21170;-52
2021/01/28 01:43:26;;;;;;;0.10;0.10;;;;;;;-1.33;100.00;98984.27;1759470;81;21584;-52
2021/01/28 01:46:04;;;;;;;0.30;0.30;;;;;;;-1.34;100.00;98987.98;1759296;81;21198;-51
2021/01/28 01:48:50;;;;;;;0.10;0.10;;;;;;;-1.35;100.00;98991.73;1759630;81;21119;-52
2021/01/28 01:51:24;;;;;;;0.15;0.15;;;;;;;-1.35;100.00;98980.20;1759196;81;21206;-51
2021/01/28 01:53:56;;;;;;;0.47;0.33;;;;;;;-1.34;100.00;98977.27;1759548;81;21154;-51
2021/01/28 01:56:28;;;;;;;0.20;0.20;;;;;;;-1.35;100.00;98981.01;1733775;81;21477;-51
2021/01/28 01:59:07;;;;;;;0.40;0.40;;;;;;;-1.34;100.00;98969.75;1759216;81;21273;-51
2021/01/28 02:02:05;;;;;;;0.10;0.10;;;;;;;-1.35;100.00;98972.97;1759611;81;21380;-51
2021/01/28 02:04:56;;;;;;;0.20;0.20;;;;;;;-1.35;100.00;98983.69;1759492;81;21134;-50
2021/01/28 02:07:41;;;;;;;0.10;0.10;;;;;;;-1.36;100.00;98975.38;1759608;81;21115;-51
2021/01/28 02:10:24;;;;;;;0.13;0.13;;;;;;;-1.33;100.00;98962.83;1823512;76;29069;-49
2021/01/28 02:13:09;;;;;;;0.33;0.33;;;;;;;-1.38;100.00;98969.44;1781233;80;21130;-48
2021/01/28 02:15:40;;;;;;;0.10;0.10;;;;;;;-1.38;100.00;98973.45;1785983;78;21716;-48
2021/01/28 02:18:08;;;;;;;0.15;0.15;;;;;;;-1.37;100.00;98963.54;1756020;80;21134;-48
2021/01/28 02:20:54;;;;;;;0.00;0.00;;;;;;;-1.39;100.00;98955.73;1783893;78;21525;-48
2021/01/28 02:24:03;;;;;;;0.10;0.10;;;;;;;-1.38;100.00;98951.20;1786236;80;21114;-48
2021/01/28 02:26:31;;;;;;;0.05;0.05;;;;;;;-1.37;100.00;98953.62;1786191;80;21549;-48
2021/01/28 02:29:01;;;;;;;0.00;0.00;;;;;;;-1.37;100.00;98953.62;1781457;78;21945;-48
2021/01/28 02:31:29;;;;;;;0.00;0.00;;;;;;;-1.38;100.00;98952.55;1755592;80;21126;-48
2021/01/28 02:33:58;;;;;;;0.10;0.10;;;;;;;-1.38;100.00;98959.25;1756219;78;21244;-49
2021/01/28 02:36:31;;;;;;;0.00;0.00;;;;;;;-1.39;100.00;98958.41;1784579;80;21134;-48
2021/01/28 02:39:00;;;;;;;;;;;;;;;-1.38;100.00;98970.77;1787187;78;21517;-49
2021/01/28 02:41:28;;;;;;;0.00;0.00;;;;;;;-1.38;100.00;98964.07;1786150;80;20321;-48
2021/01/28 02:43:58;;;;;;;0.00;0.00;;;;;;;-1.37;100.00;98967.56;1785134;78;21229;-48
2021/01/28 02:46:44;;;;;;;0.80;0.50;;;;;;;-1.37;100.00;98967.56;1786248;80;21126;-49
2021/01/28 02:49:19;;;;;;;0.10;0.10;;;;;;;-1.36;100.00;98967.84;1781583;78;21557;-48
2021/01/28 02:51:48;;;;;;;0.10;0.10;;;;;;;-1.36;100.00;98959.80;1785574;80;21809;-48
2021/01/28 02:54:20;;;;;;;0.10;0.10;;;;;;;-1.37;100.00;98960.86;1783633;80;21129;-48
2021/01/28 02:56:49;;;;;;;0.30;0.30;;;;;;;-1.36;100.00;98963.81;1785904;80;21154;-48
2021/01/28 02:59:16;;;;;;;2.75;0.40;;;;;;;-1.38;100.00;98969.44;1786124;78;21123;-48
2021/01/28 03:01:45;;;;;;;0.08;0.08;;;;;;;-1.37;100.00;98961.67;1786044;80;21086;-49
2021/01/28 03:04:13;;;;;;;0.00;0.00;;;;;;;-1.34;100.00;98968.42;1755354;80;21670;-48
2021/01/28 03:06:42;;;;;;;0.10;0.10;;;;;;;-1.33;100.00;98962.02;1784368;80;21125;-48
2021/01/28 03:09:11;;;;;;;0.10;0.10;;;;;;;-1.34;100.00;98974.59;1788430;78;21161;-48
2021/01/28 03:11:40;;;;;;;0.08;0.08;;;;;;;-1.32;100.00;98971.15;1792146;80;21126;-49
2021/01/28 03:14:09;;;;;;;0.10;0.10;;;;;;;-1.28;100.00;98972.03;1791710;78;21110;-48
2021/01/28 03:16:41;;;;;;;0.17;0.17;;;;;;;-1.27;100.00;98970.97;1792550;80;21126;-49
2021/01/28 03:19:11;;;;;;;0.20;0.20;;;;;;;-1.28;100.00;98976.86;1791726;78;21680;-48
2021/01/28 03:21:39;;;;;;;0.00;0.00;;;;;;;-1.28;100.00;98973.38;1791654;80;21118;-48
2021/01/28 03:24:24;;;;;;;0.65;0.65;;;;;;;-1.27;100.00;98974.98;1791672;78;21149;-48
2021/01/28 03:27:03;;;;;;;0.08;0.08;;;;;;;-1.26;100.00;98977.95;1791218;80;21129;-48
2021/01/28 03:29:31;;;;;;;2.10;0.72;;;;;;;-1.25;100.00;98980.93;1791639;78;21094;-49
2021/01/28 03:31:59;;;;;;;0.10;0.10;;;;;;;-1.25;100.00;98996.48;1791638;80;21509;-48
2021/01/28 03:34:26;;;;;;;0.00;0.00;;;;;;;-1.23;100.00;98986.87;1791598;78;21137;-49
2021/01/28 03:36:56;;;;;;;1.55;0.45;;;;;;;-1.23;100.00;98986.87;1765549;80;21393;-49
2021/01/28 03:39:26;;;;;;;0.10;0.10;;;;;;;-1.22;100.00;98983.12;1791473;78;21532;-49
2021/01/28 03:41:54;;;;;;;0.20;0.20;;;;;;;-1.22;100.00;98980.45;1765268;80;21583;-49
2021/01/28 03:44:22;;;;;;;0.20;0.20;;;;;;;-1.23;100.00;98976.16;1765100;80;21153;-49
2021/01/28 03:46:51;;;;;;;0.00;0.00;;;;;;;-1.22;100.00;98974.55;1791436;80;21162;-49
2021/01/28 03:49:20;;;;;;;0.08;0.08;;;;;;;-1.22;100.00;98971.06;1791002;78;21158;-49
2021/01/28 03:51:56;;;;;;;0.00;0.00;;;;;;;-1.24;100.00;98957.09;1791653;80;21118;-49
2021/01/28 03:54:40;;;;;;;0.10;0.10;;;;;;;-1.23;100.00;98962.75;1787689;78;21430;-49
2021/01/28 03:57:09;;;;;;;0.05;0.05;;;;;;;-1.24;100.00;98951.72;1790744;80;21624;-49
2021/01/28 03:59:40;;;;;;;0.10;0.10;;;;;;;-1.24;100.00;98943.69;1790257;78;21624;-50
2021/01/28 04:02:25;;;;;;;0.08;0.08;;;;;;;-1.25;100.00;98936.70;1791600;80;21149;-49
2021/01/28 04:05:12;;;;;;;0.17;0.17;;;;;;;-1.25;100.00;98935.37;1791617;78;21153;-50
2021/01/28 04:07:51;;;;;;;0.10;0.10;;;;;;;-1.26;100.00;98935.91;1791715;80;21142;-50
2021/01/28 04:10:31;;;;;;;0.10;0.10;;;;;;;-1.26;100.00;98917.64;1791455;78;21173;-49
2021/01/28 04:12:59;;;;;;;0.00;0.00;;;;;;;-1.25;100.00;98904.55;1735509;82;21149;-50
2021/01/28 04:15:32;;;;;;;0.10;0.10;;;;;;;-1.26;100.00;98902.90;1791571;78;21141;-49
2021/01/28 04:18:00;;;;;;;0.00;0.00;;;;;;;-1.27;100.00;98899.95;1767356;80;21153;-49
2021/01/28 04:20:33;;;;;;;0.23;0.23;;;;;;;-1.27;100.00;98896.73;1791531;78;21145;-50
2021/01/28 04:23:03;;;;;;;0.10;0.10;;;;;;;-1.27;100.00;98904.77;1791960;80;21386;-49
2021/01/28 04:25:33;;;;;;;0.10;0.10;;;;;;;-1.27;100.00;98934.79;1791906;78;21452;-50
2021/01/28 04:28:01;;;;;;;0.00;0.00;;;;;;;-1.28;100.00;98966.67;1767333;80;21406;-49
2021/01/28 04:30:32;;;;;;;0.45;0.30;;;;;;;-1.27;100.00;98962.93;1790054;78;21512;-50
2021/01/28 04:32:59;;;;;;;0.10;0.10;;;;;;;-1.28;100.00;98958.63;1791831;80;21150;-49
2021/01/28 04:35:46;;;;;;;0.00;0.00;;;;;;;-1.30;100.00;98975.75;1791845;78;21110;-50
2021/01/28 04:38:13;;;;;;;0.20;0.20;;;;;;;-1.30;100.00;99001.21;1791824;80;21619;-49
2021/01/28 04:40:48;;;;;;;0.20;0.20;;;;;;;-1.27;100.00;98966.95;1791427;78;21102;-50
2021/01/28 04:43:26;;;;;;;0.17;0.17;;;;;;;-1.27;100.00;98943.64;1791851;80;21114;-50
2021/01/28 04:45:59;;;;;;;0.13;0.13;;;;;;;-1.23;100.00;98934.61;1788105;80;21114;-50
2021/01/28 04:48:30;;;;;;;0.00;0.00;;;;;;;-1.21;100.00;98924.44;1708217;81;21150;-49
2021/01/28 04:51:19;;;;;;;0.10;0.10;;;;;;;-1.17;100.00;98923.72;1848187;76;29488;-49
2021/01/28 04:53:59;;;;;;;0.00;0.00;;;;;;;-1.18;100.00;98922.64;1810586;78;21105;-48
2021/01/28 04:56:28;;;;;;;0.00;0.00;;;;;;;-1.18;100.00;98918.09;1785554;80;21569;-49
2021/01/28 04:59:23;;;;;;;0.15;0.15;;;;;;;-1.18;100.00;98911.92;1784718;78;21146;-49
2021/01/28 05:01:51;;;;;;;0.30;0.30;;;;;;;-1.19;100.00;98918.31;1785304;80;21157;-49
2021/01/28 05:04:39;;;;;;;0.35;0.35;;;;;;;-1.19;100.00;98911.61;1772250;78;21127;-49
2021/01/28 05:07:29;;;;;;;0.10;0.10;;;;;;;-1.15;100.00;98899.37;1847938;76;29150;-50
2021/01/28 05:10:25;;;;;;;0.15;0.15;;;;;;;-1.19;100.00;98907.59;1742997;81;21149;-49
2021/01/28 05:13:05;;;;;;;0.00;0.00;;;;;;;-1.21;100.00;98921.25;1681501;85;21137;-49
2021/01/28 05:15:41;;;;;;;0.23;0.23;;;;;;;-1.21;100.00;98927.12;1731797;81;21137;-49
2021/01/28 05:18:36;;;;;;;0.08;0.08;;;;;;;-1.16;100.00;98929.92;1887656;76;29151;-49
2021/01/28 05:21:23;;;;;;;0.40;0.40;;;;;;;-1.22;100.00;98928.19;1823009;78;21091;-49
2021/01/28 05:24:36;;;;;;;0.35;0.35;;;;;;;-1.19;100.00;98931.72;1841091;76;29490;-49
2021/01/28 05:27:32;;;;;;;0.20;0.20;;;;;;;-1.21;100.00;98939.17;1755705;80;21422;-49
2021/01/28 05:30:04;;;;;;;0.00;0.00;;;;;;;-1.23;100.00;98921.20;1786301;78;21480;-49
2021/01/28 05:32:47;;;;;;;0.05;0.05;;;;;;;-1.22;100.00;98920.95;1786033;80;21130;-49
2021/01/28 05:35:30;;;;;;;0.10;0.10;;;;;;;-1.24;100.00;98923.05;1786062;78;21615;-49
2021/01/28 05:38:25;;;;;;;0.00;0.00;;;;;;;-1.19;100.00;98917.78;1885426;76;29061;-49
2021/01/28 05:41:12;;;;;;;0.20;0.20;;;;;;;-1.24;100.00;98931.63;1745368;81;21930;-49
2021/01/28 05:43:43;;;;;;;0.00;0.00;;;;;;;-1.23;100.00;98939.97;1763942;80;21180;-49
2021/01/28 05:46:24;;;;;;;0.10;0.10;;;;;;;-1.23;100.00;98931.92;1726452;83;22413;-49
2021/01/28 05:49:14;;;;;;;0.62;0.33;;;;;;;-1.24;100.00;98926.27;1779364;80;21118;-50
2021/01/28 05:51:54;;;;;;;6.12;0.62;;;;;;;-1.19;100.00;98938.42;1846531;76;29048;-49
2021/01/28 05:54:26;;;;;;;0.70;0.68;;;;;;;-1.23;100.00;98950.69;1766103;80;21618;-48
2021/01/28 05:57:31;;;;;;;0.90;0.30;;;;;;;-1.23;100.00;98955.52;1777598;80;21186;-49
2021/01/28 06:00:12;;;;;;;0.00;0.00;;;;;;;-1.21;100.00;98957.94;1750969;80;21134;-48
2021/01/28 06:03:14;;;;;;;0.10;0.10;;;;;;;-1.22;100.00;98948.28;1761919;78;21116;-49
2021/01/28 06:06:08;;;;;;;0.08;0.08;;;;;;;-1.22;100.00;98938.38;1755008;80;21118;-49
2021/01/28 06:09:10;;;;;;;0.00;0.00;;;;;;;-1.22;100.00;98926.31;1755050;80;21145;-49
2021/01/28 06:11:54;;;;;;;0.00;0.00;;;;;;;-1.23;100.00;98942.65;1725175;81;21165;-49
2021/01/28 06:14:45;;;;;;;7.37;0.33;;;;;;;-1.23;100.00;98938.09;1773036;78;21094;-49
2021/01/28 06:17:59;;;;;;;0.10;0.10;;;;;;;-1.19;100.00;98919.66;1846590;76;29109;-49
2021/01/28 06:21:17;;;;;;;0.68;0.68;;;;;;;-1.24;100.00;98931.09;1791329;78;21144;-50
2021/01/28 06:24:23;;;;;;;1.30;1.12;;;;;;;-1.24;100.00;98922.24;1784207;78;21417;-51
2021/01/28 06:27:25;;;;;;;0.10;0.10;;;;;;;-1.22;100.00;98920.14;1776301;80;21157;-51
2021/01/28 06:30:10;;;;;;;0.00;0.00;;;;;;;-1.23;100.00;98926.03;1780248;79;21606;-51
2021/01/28 06:33:25;;;;;;;1.62;1.07;;;;;;;-1.23;100.00;98910.48;1780910;80;21153;-51
2021/01/28 06:36:33;;;;;;;0.55;0.55;;;;;;;-1.18;100.00;98924.79;1860504;75;29531;-49
2021/01/28 06:39:26;;;;;;;0.42;0.42;;;;;;;-1.22;100.00;98930.33;1816262;77;21129;-48
2021/01/28 06:42:45;;;;;;;1.35;0.57;;;;;;;-1.18;100.00;98927.47;1886098;74;29497;-49
2021/01/28 06:45:34;;;;;;;0.10;0.10;;;;;;;-1.23;100.00;98909.14;1782242;80;21190;-50
2021/01/28 06:48:22;;;;;;;0.33;0.33;;;;;;;-1.23;100.00;98909.14;1774503;80;21589;-50
2021/01/28 06:51:32;;;;;;;0.10;0.10;;;;;;;-1.21;100.00;98915.05;1779533;78;21200;-50
2021/01/28 06:54:08;;;;;;;0.03;0.03;;;;;;;-1.21;100.00;98915.05;1661839;84;21174;-50
2021/01/28 06:57:11;;;;;;;0.10;0.10;;;;;;;-1.19;100.00;98916.97;1730616;81;21129;-49
2021/01/28 07:00:35;;;;;;;0.10;0.10;;;;;;;-1.14;100.00;98900.98;1883071;76;29554;-51
2021/01/28 07:03:32;;;;;;;0.35;0.35;;;;;;;-1.17;100.00;98917.55;1821050;78;21083;-52
2021/01/28 07:06:13;;;;;;;2.65;0.62;;;;;;;-1.18;100.00;98920.77;1819926;78;21162;-52
2021/01/28 07:08:57;;;;;;;0.10;0.10;;;;;;;-1.17;100.00;98912.19;1820891;78;21616;-51
2021/01/28 07:11:32;;;;;;;0.10;0.10;;;;;;;-1.18;100.00;98902.53;1820314;78;21158;-51
2021/01/28 07:14:18;;;;;;;0.28;0.28;;;;;;;-1.17;100.00;98908.17;1795135;78;21113;-51
2021/01/28 07:17:01;;;;;;;0.65;0.40;;;;;;;-1.17;100.00;98913.00;1821509;77;21102;-51
2021/01/28 07:19:36;;;;;;;0.15;0.15;;;;;;;-1.15;100.00;98906.07;1822865;77;21437;-51
2021/01/28 07:22:36;;;;;;;0.20;0.20;;;;;;;-1.13;100.00;98907.98;1820549;78;21608;-51
2021/01/28 07:25:30;;;;;;;0.10;0.10;;;;;;;-1.11;100.00;98889.80;1820701;78;21418;-51
2021/01/28 07:28:02;;;;;;;0.10;0.10;;;;;;;-1.09;100.00;98892.52;1790292;78;21098;-51
2021/01/28 07:30:44;;;;;;;0.13;0.13;;;;;;;-1.06;100.00;98908.66;1820710;78;21128;-51
2021/01/28 07:33:28;;;;;;;0.20;0.20;;;;;;;-1.02;100.00;98891.55;1820652;78;21391;-52
2021/01/28 07:36:11;;;;;;;0.13;0.13;;;;;;;-1.01;100.00;98898.55;1792626;78;21387;-51
2021/01/28 07:38:57;;;;;;;0.10;0.10;;;;;;;-0.95;100.00;98894.35;1845761;76;29110;-49
2021/01/28 07:41:57;;;;;;;0.75;0.75;;;;;;;-0.94;100.00;98889.80;1689317;83;21149;-48
2021/01/28 07:44:57;;;;;;;1.02;0.72;;;;;;;-0.86;100.00;98890.77;1853252;76;27787;-49
2021/01/28 07:47:45;;;;;;;0.40;0.30;;;;;;;-0.86;100.00;98897.47;1824714;78;21512;-49
2021/01/28 07:50:30;;;;;;;0.20;0.20;;;;;;;-0.78;100.00;98904.30;1788528;78;21094;-49
2021/01/28 07:53:00;;;;;;;0.72;0.72;;;;;;;-0.74;100.00;98908.09;1787925;80;21149;-49
2021/01/28 07:55:44;;;;;;;0.10;0.10;;;;;;;-0.72;100.00;98910.86;1757646;80;21145;-49
2021/01/28 07:58:29;;;;;;;0.30;0.30;;;;;;;-0.69;100.00;98909.02;1823408;78;21135;-49
2021/01/28 08:00:56;;;;;;;0.10;0.10;;;;;;;-0.66;100.00;98911.74;1825189;77;21068;-50
2021/01/28 08:03:36;;;;;;;0.10;0.10;;;;;;;-0.67;100.00;98912.78;1760854;78;21627;-49
2021/01/28 08:06:08;;;;;;;0.15;0.15;;;;;;;-0.71;100.00;98910.31;1825091;78;21103;-49
2021/01/28 08:08:36;;;;;;;0.28;0.28;;;;;;;-0.71;100.00;98908.98;1793574;78;21569;-49
2021/01/28 08:11:19;;;;;;;0.03;0.03;;;;;;;-0.72;100.00;98903.31;1824065;78;21103;-51
2021/01/28 08:13:48;;;;;;;0.00;0.00;;;;;;;-0.73;100.00;98906.52;1825256;78;21130;-52
2021/01/28 08:16:17;;;;;;;0.90;0.85;;;;;;;-0.72;100.00;98893.92;1767869;80;21202;-51
2021/01/28 08:18:47;;;;;;;1.55;0.65;;;;;;;-0.68;100.00;98891.85;1795992;79;21166;-52
2021/01/28 08:21:23;;;;;;;0.10;0.10;;;;;;;-0.62;100.00;98900.79;1729176;81;21620;-52
2021/01/28 08:23:51;;;;;;;0.20;0.20;;;;;;;-0.60;100.00;98902.70;1762574;81;21106;-51
2021/01/28 08:26:29;;;;;;;0.00;0.00;;;;;;;-0.60;100.00;98895.99;1780332;79;21139;-51
2021/01/28 08:29:07;;;;;;;0.10;0.10;;;;;;;-0.59;100.00;98901.66;1777833;80;21900;-51
2021/01/28 08:31:43;;;;;;;4.03;1.27;;;;;;;-0.59;100.00;98909.72;1773902;80;21201;-52
2021/01/28 08:34:22;;;;;;;0.10;0.10;;;;;;;-0.60;100.00;98918.80;1779164;79;21115;-52
2021/01/28 08:37:05;;;;;;;0.20;0.20;;;;;;;-0.56;100.00;98918.61;1887791;76;29534;-50
2021/01/28 08:39:34;;;;;;;0.00;0.00;;;;;;;-0.58;100.00;98927.42;1853749;77;21150;-49
2021/01/28 08:42:11;;;;;;;0.28;0.28;;;;;;;-0.54;100.00;98925.09;1856345;77;21149;-51
2021/01/28 08:44:40;;;;;;;1.05;1.00;;;;;;;-0.50;100.00;98922.98;1827202;77;21442;-50
2021/01/28 08:47:20;;;;;;;0.10;0.10;;;;;;;-0.47;100.00;98919.00;1858787;77;21537;-50
2021/01/28 08:50:17;;;;;;;0.00;0.00;;;;;;;-0.45;100.00;98927.09;1856161;77;21182;-50
2021/01/28 08:52:45;;;;;;;0.20;0.20;;;;;;;-0.44;100.00;98924.70;1858892;77;21663;-50
2021/01/28 08:55:27;;;;;;;0.10;0.10;;;;;;;-0.46;100.00;98914.74;1825851;77;21509;-50
2021/01/28 08:58:08;;;;;;;0.10;0.10;;;;;;;-0.46;100.00;98907.22;1858778;77;21146;-50
2021/01/28 09:00:40;;;;;;;0.07;0.07;;;;;;;-0.41;100.00;98901.13;1848928;77;21157;-51
2021/01/28 09:03:07;;;;;;;0.10;0.10;;;;;;;-0.34;100.00;98899.09;1852984;77;21772;-52
2021/01/28 09:05:36;;;;;;;0.45;0.45;;;;;;;-0.27;100.00;98899.20;1789086;79;21110;-51
2021/01/28 09:08:06;;;;;;;0.80;0.80;;;;;;;-0.24;100.00;98900.58;1735110;81;21138;-52
2021/01/28 09:10:40;;;;;;;0.50;0.50;;;;;;;-0.24;100.00;98901.92;1761344;80;21616;-53
2021/01/28 09:13:24;;;;;;;0.20;0.20;;;;;;;-0.22;100.00;98899.80;1790308;79;21110;-53
2021/01/28 09:16:12;;;;;;;1.07;0.95;;;;;;;-0.21;100.00;98897.39;1762068;80;21159;-54
2021/01/28 09:18:44;;;;;;;0.10;0.10;;;;;;;-0.20;100.00;98897.66;1761391;81;21462;-54
2021/01/28 09:21:17;;;;;;;0.30;0.30;;;;;;;-0.17;100.00;98886.95;1761612;81;21188;-56
2021/01/28 09:24:06;;;;;;;0.98;0.40;;;;;;;-0.16;100.00;98885.38;1773105;79;21154;-54
2021/01/28 09:26:35;;;;;;;0.72;0.72;;;;;;;-0.16;100.00;98887.26;1763169;79;21553;-55
2021/01/28 09:29:23;;;;;;;2.83;0.47;;;;;;;-0.18;100.00;98880.78;1761447;81;21163;-55
2021/01/28 09:31:50;;;;;;;0.03;0.03;;;;;;;-0.19;100.00;98883.73;1761794;80;21212;-55
2021/01/28 09:34:27;;;;;;;0.10;0.10;;;;;;;-0.26;100.00;98880.68;1792855;80;21178;-55
2021/01/28 09:37:14;;;;;;;0.00;0.00;;;;;;;-0.26;100.00;98876.65;1774660;79;21152;-55
2021/01/28 09:39:45;;;;;;;0.10;0.10;;;;;;;-0.25;100.00;98876.11;1774254;79;21163;-55
2021/01/28 09:42:30;;;;;;;0.00;0.00;;;;;;;-0.27;100.00;98864.84;1786132;78;21557;-55
2021/01/28 09:45:10;;;;;;;0.53;0.53;;;;;;;-0.25;100.00;98870.74;1781478;79;21115;-55
2021/01/28 09:47:38;;;;;;;0.47;0.47;;;;;;;-0.25;100.00;98872.09;1800209;79;21120;-55
2021/01/28 09:50:10;;;;;;;0.42;0.42;;;;;;;-0.25;100.00;98878.80;1816668;78;21150;-56
2021/01/28 09:52:40;;;;;;;0.00;0.00;;;;;;;-0.27;100.00;98864.84;1819994;78;21426;-57
2021/01/28 09:55:12;;;;;;;0.10;0.10;;;;;;;-0.29;100.00;98860.23;1784078;80;21676;-57
2021/01/28 09:57:40;;;;;;;0.57;0.57;;;;;;;-0.27;100.00;98858.13;1768196;78;21122;-57
2021/01/28 10:00:10;;;;;;;0.90;0.37;;;;;;;-0.26;100.00;98853.83;1788087;78;21128;-58
2021/01/28 10:03:00;;;;;;;0.10;0.10;;;;;;;-0.28;100.00;98845.20;1781828;79;21174;-57
2021/01/28 10:05:31;;;;;;;0.10;0.10;;;;;;;-0.29;100.00;98838.23;1783713;80;21135;-57
2021/01/28 10:08:00;;;;;;;0.10;0.10;;;;;;;-0.30;100.00;98830.41;1799107;79;21138;-57
2021/01/28 10:10:30;;;;;;;0.10;0.10;;;;;;;-0.33;100.00;98823.67;1798453;79;21542;-58
2021/01/28 10:13:03;;;;;;;0.20;0.20;;;;;;;-0.35;100.00;98822.30;1798896;79;21134;-58
2021/01/28 10:15:31;;;;;;;0.53;0.40;;;;;;;-0.35;100.00;98808.88;1803684;79;21382;-58
2021/01/28 10:18:01;;;;;;;0.88;0.53;;;;;;;-0.35;100.00;98807.53;1803623;79;21154;-58
2021/01/28 10:20:29;;;;;;;0.25;0.25;;;;;;;-0.34;100.00;98801.12;1783165;79;21123;-59
2021/01/28 10:22:58;;;;;;;0.10;0.10;;;;;;;-0.33;100.00;98808.91;1800411;79;21135;-59
2021/01/28 10:25:26;;;;;;;2.55;0.47;;;;;;;-0.30;100.00;98803.57;1795800;79;21130;-58
2021/01/28 10:27:55;;;;;;;0.08;0.08;;;;;;;-0.30;100.00;98803.57;1768159;80;21134;-57
2021/01/28 10:30:23;;;;;;;0.25;0.25;;;;;;;-0.30;100.00;98808.94;1782119;80;21690;-58
2021/01/28 10:32:52;;;;;;;0.20;0.20;;;;;;;-0.31;100.00;98808.67;1770765;80;21573;-58
2021/01/28 10:35:26;;;;;;;0.05;0.05;;;;;;;-0.30;100.00;98808.40;1775706;80;21155;-57
2021/01/28 10:37:54;;;;;;;0.10;0.10;;;;;;;-0.29;100.00;98807.89;1767847;79;21127;-56
2021/01/28 10:40:23;;;;;;;0.08;0.08;;;;;;;-0.31;100.00;98801.95;1781201;78;21144;-54
2021/01/28 10:42:57;;;;;;;0.10;0.10;;;;;;;-0.30;100.00;98807.59;1798066;78;21162;-54
2021/01/28 10:45:29;;;;;;;0.20;0.20;;;;;;;-0.30;100.00;98810.28;1794716;78;21115;-54
2021/01/28 10:47:57;;;;;;;0.13;0.13;;;;;;;-0.30;100.00;98808.94;1811216;78;21422;-55
2021/01/28 10:50:28;;;;;;;0.40;0.40;;;;;;;-0.30;100.00;98803.57;1810711;78;21126;-55
2021/01/28 10:52:55;;;;;;;0.23;0.23;;;;;;;-0.28;100.00;98814.88;1812097;78;21123;-55
2021/01/28 10:55:24;;;;;;;1.27;1.00;;;;;;;-0.28;100.00;98824.27;1809617;78;21170;-55
2021/01/28 10:57:52;;;;;;;0.20;0.20;;;;;;;-0.27;100.00;98824.57;1785541;80;21118;-54
2021/01/28 11:00:20;;;;;;;0.13;0.13;;;;;;;-0.27;100.00;98823.23;1760558;80;21626;-54
2021/01/28 11:02:49;;;;;;;0.30;0.30;;;;;;;-0.28;100.00;98822.93;1766251;79;21138;-54
2021/01/28 11:05:28;;;;;;;1.10;0.57;;;;;;;-0.30;100.00;98825.05;1767062;79;21505;-54
2021/01/28 11:07:56;;;;;;;1.15;0.40;;;;;;;-0.28;100.00;98822.93;1787612;80;21534;-54
2021/01/28 11:10:24;;;;;;;0.33;0.33;;;;;;;-0.28;100.00;98814.34;1793607;78;21115;-54
2021/01/28 11:12:52;;;;;;;0.98;0.45;;;;;;;-0.29;100.00;98812.73;1763885;80;21536;-55
2021/01/28 11:15:21;;;;;;;0.35;0.35;;;;;;;-0.31;100.00;98803.30;1781573;80;21636;-54
2021/01/28 11:17:49;;;;;;;1.10;1.00;;;;;;;-0.31;100.00;98812.69;1779689;80;21180;-56
2021/01/28 11:20:17;;;;;;;0.10;0.10;;;;;;;-0.31;100.00;98823.43;1786915;80;21140;-56
2021/01/28 11:22:45;;;;;;;0.00;0.00;;;;;;;-0.34;100.00;98836.02;1768005;80;21557;-57
2021/01/28 11:25:17;;;;;;;1.32;0.72;;;;;;;-0.38;100.00;98841.05;1787860;80;21143;-57
2021/01/28 11:27:48;;;;;;;0.23;0.23;;;;;;;-0.38;100.00;98841.58;1804151;79;21131;-56
2021/01/28 11:30:17;;;;;;;0.17;0.17;;;;;;;-0.39;100.00;98835.94;1789244;79;21114;-56
2021/01/28 11:32:47;;;;;;;0.50;0.50;;;;;;;-0.40;100.00;98832.96;1780671;79;21142;-56
2021/01/28 11:35:15;;;;;;;0.62;0.62;;;;;;;-0.41;100.00;98829.47;1800318;79;21572;-56
2021/01/28 11:37:46;;;;;;;0.30;0.30;;;;;;;-0.40;100.00;98828.94;1766963;80;21142;-56
2021/01/28 11:40:17;;;;;;;4.05;0.90;;;;;;;-0.39;100.00;98829.23;1772118;79;21738;-56
2021/01/28 11:42:44;;;;;;;1.35;1.30;;;;;;;-0.41;100.00;98823.30;1772054;80;21130;-56
2021/01/28 11:45:13;;;;;;;0.17;0.17;;;;;;;-0.41;100.00;98830.81;1771818;80;21157;-56
2021/01/28 11:47:41;;;;;;;0.68;0.68;;;;;;;-0.41;100.00;98821.42;1751374;81;21557;-56
2021/01/28 11:50:10;;;;;;;0.42;0.42;;;;;;;-0.41;100.00;98822.77;1741656;81;21119;-56
2021/01/28 11:52:38;;;;;;;0.33;0.25;;;;;;;-0.43;100.00;98823.53;1737931;82;21151;-55
2021/01/28 11:55:08;;;;;;;0.00;0.00;;;;;;;-0.46;100.00;98824.03;1775285;80;21151;-56
2021/01/28 11:57:35;;;;;;;0.08;0.08;;;;;;;-0.48;100.00;98839.03;1765369;80;21210;-55
2021/01/28 12:00:07;;;;;;;0.68;0.68;;;;;;;-0.49;100.00;98829.36;1751422;81;21434;-56
2021/01/28 12:02:37;;;;;;;0.20;0.20;;;;;;;-0.49;100.00;98845.47;1766838;80;21123;-56
2021/01/28 12:05:17;;;;;;;2.42;0.57;;;;;;;-0.50;100.00;98833.09;1768247;80;21142;-56
2021/01/28 12:07:45;;;;;;;0.35;0.35;;;;;;;-0.50;100.00;98830.94;1771990;80;21151;-55
2021/01/28 12:10:16;;;;;;;0.15;0.15;;;;;;;-0.49;100.00;98840.64;1772196;80;21142;-55